Предлагаем Вашему вниманию английскую версию страницы: AUTOTAF.ME 40708 - aviation weather forecast Ardebil

AUTOTAF 40708 - авиапрогноз Ardebil

Сегодня рассвет 03:28 UTC, восход солнца 03:56 UTC,
местный полдень 08:59 UTC, заход солнца 14:01 UTC,
наступление темноты 14:29 UTC.

Краткий прогноз 40708 на 9 часов

AUTOTAF.ME 40708 252000Z 2521/2606 19008MPS CAVOK

Детальный прогноз 40708 на 24 часа

AUTOTAF.ME 40708 252000Z 2521/2621 19008MPS 9999 SKC TX06/2612Z TNM08/2600Z       
  BECMG 2613/2615 18005MPS

Подробный табличный прогноз

Время (UTC) miniAUTOTAF на 3 ч WX FZLVL
M AGL
ICE TURB Т
(°С)
Тd
(°С)
f(%) QNH
(гПа)
WIND/T
18 19007MPS 9999 SCT140 110 -5 -10 66 1021 ...
21 19008MPS 9999 SKC 50 -7 -12 67 1021 ...
26.01.2021
00 18007MPS 9999 SKC SFC -8 -13 68 1020 ...
03 18008MPS 9999 SKC SFC -8 -13 68 1021 ...
06 18008MPS 9999 FEW180 150 -3 -11 54 1021 ...
09 19008MPS 9999 BKN170 360 5 -7 40 1020 ...
12 19007MPS 9999 BKN143 300 6 -5 44 1019 ...
15 18005MPS 9999 FEW160 30 -1 -7 66 1021 ...
18 18005MPS 9999 FEW160 80 MOD FL170/FL180 -5 -10 72 1021 ...
21 18005MPS 9999 SKC 130 -7 -11 72 1021 ...
27.01.2021
00 18004MPS 9999 SKC 140 -7 -11 72 1021 ...
03 18006MPS 9999 SKC 140 -7 -11 70 1021 ...
06 18007MPS 9999 SKC 540 -1 -8 56 1020 ...
09 19008MPS 9999 FEW250 1650 7 -5 43 1018 ...
12 19008MPS 9999 FEW250 1650 8 -4 43 1016 ...
15 18008MPS 9999 OVC199 480 4 -6 49 1017 ...


Широта 38.2°, долгота 48.3°, высота 1342 м абс.
Средняя высота рельефа местности 2091 м абс.
Прогнозы обновляются четыре раза в сутки: в 02, 08, 14, 20 ч всемирного времени.


Выбрать прогноз по другой модели Ardebil
Онлайн-сводка гроз по Ardebil (для РФ и ближнего зарубежья)
Карта фактических гроз в окрестностях Ardebil
Динамические прогностические карты (ventusky.com)
Прогностическая карта высоты нижней границы облаков по Ardebil (windy.com)
Выбрать другой город

Прогноз предназначен для личного научно-познавательного использования частными лицами
и не предназначен для принятия важных решений и выполнения реальных полётов воздушных судов

При копировании или ином использовании любых материалов данного сайта ссылка на © meteocenter.asia обязательна.

0.71/1.2